Time;durP1;ratioP1;P1;durP2;ratioP2;P2;SDS_P1;SDS_P2;PMS_P1;PMS_P2;Temp;Humidity;BMP_temperature;BMP_pressure;BME280_temperature;BME280_humidity;BME280_pressure;Samples;Min_cycle;Max_cycle;Signal;HPM_P1;HPM_P2
2022/07/04 00:00:52;;;;;;;23.75;22.27;;;15.00;99.90;;;;;;5068074;28;20552;-75
2022/07/04 00:03:18;;;;;;;24.17;22.67;;;14.90;99.90;;;;;;5069935;28;20132;-75
2022/07/04 00:05:45;;;;;;;23.38;21.70;;;14.80;99.90;;;;;;5055721;28;20458;-75
2022/07/04 00:08:12;;;;;;;23.92;22.25;;;14.60;99.90;;;;;;5068997;28;20109;-76
2022/07/04 00:10:39;;;;;;;23.75;22.25;;;14.70;99.90;;;;;;5061389;28;20521;-75
2022/07/04 00:13:06;;;;;;;23.33;21.73;;;14.60;99.90;;;;;;5063073;28;20220;-75
2022/07/04 00:15:32;;;;;;;22.75;21.15;;;14.40;99.90;;;;;;5063892;28;20086;-75
2022/07/04 00:17:59;;;;;;;22.42;20.83;;;14.20;99.90;;;;;;5060166;28;20071;-75
2022/07/04 00:20:26;;;;;;;22.42;20.83;;;14.20;99.90;;;;;;5071891;28;20048;-76
2022/07/04 00:22:53;;;;;;;22.77;21.17;;;14.20;99.90;;;;;;5054293;28;20478;-79
2022/07/04 00:25:20;;;;;;;22.83;21.38;;;14.20;99.90;;;;;;5058970;28;20043;-76
2022/07/04 00:27:46;;;;;;;22.40;21.10;;;14.00;99.90;;;;;;5065670;28;20764;-76
2022/07/04 00:30:13;;;;;;;23.52;22.02;;;13.90;99.90;;;;;;5059373;28;20048;-75
2022/07/04 00:32:40;;;;;;;24.00;22.33;;;13.80;99.90;;;;;;5067364;28;20369;-76
2022/07/04 00:35:08;;;;;;;22.92;21.42;;;13.80;99.90;;;;;;5070259;28;20669;-75
2022/07/04 00:37:35;;;;;;;23.55;21.95;;;13.60;99.90;;;;;;5066977;28;20036;-75
2022/07/04 00:40:02;;;;;;;21.90;20.42;;;13.50;99.90;;;;;;5069994;28;20044;-76
2022/07/04 00:42:29;;;;;;;22.45;20.70;;;13.70;99.90;;;;;;5064257;28;20036;-75
2022/07/04 00:44:56;;;;;;;21.45;20.15;;;13.70;99.90;;;;;;5069542;28;20040;-74
2022/07/04 00:47:22;;;;;;;21.88;20.35;;;13.70;99.90;;;;;;5048411;28;20509;-74
2022/07/04 00:49:49;;;;;;;21.05;19.65;;;13.60;99.90;;;;;;5065726;28;20044;-76
2022/07/04 00:52:17;;;;;;;20.95;19.65;;;13.50;99.90;;;;;;5070018;28;20127;-77
2022/07/04 00:54:45;;;;;;;21.00;19.70;;;13.50;99.90;;;;;;5072671;28;20052;-75
2022/07/04 00:57:13;;;;;;;21.23;19.80;;;13.40;99.90;;;;;;5063525;28;20112;-76
2022/07/04 00:59:40;;;;;;;22.17;20.63;;;13.20;99.90;;;;;;5047831;28;20075;-72
2022/07/04 01:02:07;;;;;;;21.65;20.05;;;13.30;99.90;;;;;;5048937;28;20197;-75
2022/07/04 01:04:35;;;;;;;21.77;20.45;;;13.30;99.90;;;;;;5068947;28;20102;-74
2022/07/04 01:07:04;;;;;;;20.77;19.17;;;13.40;99.90;;;;;;5070474;28;20048;-75
2022/07/04 01:09:30;;;;;;;21.15;19.50;;;13.30;99.90;;;;;;5045023;28;20068;-80
2022/07/04 01:11:57;;;;;;;20.35;19.05;;;13.20;99.90;;;;;;5060098;28;20037;-75
2022/07/04 01:14:24;;;;;;;21.02;19.52;;;13.10;99.90;;;;;;5064423;28;20309;-77
2022/07/04 01:16:51;;;;;;;20.42;18.92;;;13.10;99.90;;;;;;5068585;28;20056;-75
2022/07/04 01:19:18;;;;;;;18.77;17.70;;;13.10;99.90;;;;;;5054403;28;20060;-75
2022/07/04 01:21:44;;;;;;;19.67;18.35;;;13.00;99.90;;;;;;5063129;28;20050;-73
2022/07/04 01:24:12;;;;;;;19.50;18.40;;;12.80;99.90;;;;;;5054181;28;20048;-74
2022/07/04 01:26:39;;;;;;;20.83;19.33;;;12.90;99.90;;;;;;5069076;28;20040;-75
2022/07/04 01:29:06;;;;;;;21.25;19.67;;;12.90;99.90;;;;;;5051538;28;20048;-74
2022/07/04 01:31:33;;;;;;;21.05;19.38;;;12.70;99.90;;;;;;5051675;28;20452;-74
2022/07/04 01:33:59;;;;;;;20.67;19.48;;;12.60;99.90;;;;;;5058983;28;20097;-76
2022/07/04 01:36:26;;;;;;;21.10;19.70;;;12.50;99.90;;;;;;5064834;28;20118;-75
2022/07/04 01:38:54;;;;;;;20.52;19.05;;;12.50;99.90;;;;;;5057970;28;20331;-73
2022/07/04 01:41:21;;;;;;;19.52;18.33;;;12.40;99.90;;;;;;5048815;28;20113;-75
2022/07/04 01:43:47;;;;;;;20.05;18.75;;;12.50;99.90;;;;;;5054256;28;20079;-74
2022/07/04 01:46:14;;;;;;;20.13;18.92;;;12.60;99.90;;;;;;5057578;28;20051;-75
2022/07/04 01:48:41;;;;;;;18.95;17.63;;;12.40;99.90;;;;;;5055821;28;20070;-75
2022/07/04 01:51:08;;;;;;;19.98;18.55;;;12.30;99.90;;;;;;5046837;28;20352;-77
2022/07/04 01:53:38;;;;;;;20.13;18.83;;;12.30;99.90;;;;;;5062440;28;20481;-76
2022/07/04 01:56:05;;;;;;;19.27;18.05;;;12.30;99.90;;;;;;5069393;28;20396;-78
2022/07/04 01:58:32;;;;;;;19.92;18.40;;;12.30;99.90;;;;;;5058866;28;20048;-78
2022/07/04 02:03:48;;;;;;;19.90;18.60;;;12.20;99.90;;;;;;5065557;28;20679;-76
2022/07/04 02:06:15;;;;;;;18.70;17.48;;;12.10;99.90;;;;;;5066408;28;20106;-76
2022/07/04 02:13:00;;;;;;;19.27;18.08;;;12.10;99.90;;;;;;5063812;28;20045;-75
2022/07/04 02:14:17;;;;;;;19.45;18.35;;;12.10;99.90;;;;;;5065679;28;20112;-76
2022/07/04 02:16:44;;;;;;;19.80;18.45;;;12.00;99.90;;;;;;5073778;28;20738;-75
2022/07/04 02:19:10;;;;;;;20.02;18.45;;;12.10;99.90;;;;;;5051172;28;20184;-76
2022/07/04 02:21:37;;;;;;;19.50;18.20;;;12.20;99.90;;;;;;5050807;28;20427;-76
2022/07/04 02:24:05;;;;;;;19.10;17.75;;;12.00;99.90;;;;;;5060294;28;20411;-76
2022/07/04 02:26:31;;;;;;;18.20;16.92;;;12.10;99.90;;;;;;5062370;28;20082;-76
2022/07/04 02:28:58;;;;;;;19.20;17.67;;;12.20;99.90;;;;;;5059824;28;20110;-75
2022/07/04 02:31:26;;;;;;;19.70;18.33;;;12.10;99.90;;;;;;5071622;28;20040;-76
2022/07/04 02:33:53;;;;;;;19.17;17.98;;;12.00;99.90;;;;;;5075038;28;20131;-76
2022/07/04 02:36:20;;;;;;;19.40;18.10;;;12.00;99.90;;;;;;5074850;28;20097;-75
2022/07/04 02:38:46;;;;;;;19.35;18.05;;;12.10;99.90;;;;;;5053080;28;20110;-76
2022/07/04 02:41:13;;;;;;;19.50;18.20;;;12.00;99.90;;;;;;5069352;28;20582;-76
2022/07/04 02:43:40;;;;;;;19.65;18.45;;;12.10;99.90;;;;;;5075482;28;20068;-75
2022/07/04 02:46:07;;;;;;;19.27;18.08;;;12.00;99.90;;;;;;5075622;28;20135;-75
2022/07/04 02:48:34;;;;;;;18.83;17.73;;;12.00;99.90;;;;;;5075043;28;20052;-76
2022/07/04 02:51:04;;;;;;;19.45;17.98;;;11.90;99.90;;;;;;5065807;28;20493;-75
2022/07/04 02:53:34;;;;;;;19.35;18.05;;;11.80;99.90;;;;;;5059156;28;20044;-74
2022/07/04 02:56:03;;;;;;;19.73;18.27;;;11.80;99.90;;;;;;5066911;28;20055;-76
2022/07/04 02:58:37;;;;;;;19.15;17.95;;;11.90;99.90;;;;;;5069149;28;20052;-76
2022/07/04 03:01:04;;;;;;;21.27;19.50;;;11.80;99.90;;;;;;5067431;28;20044;-77
2022/07/04 03:03:34;;;;;;;21.52;20.05;;;11.80;99.90;;;;;;5054086;28;20148;-76
2022/07/04 03:06:01;;;;;;;20.67;19.23;;;11.80;99.90;;;;;;5052618;28;20044;-74
2022/07/04 03:08:31;;;;;;;19.90;18.70;;;11.90;99.90;;;;;;5060524;28;20443;-77
2022/07/04 03:10:58;;;;;;;19.85;18.45;;;11.90;99.90;;;;;;5071745;28;20048;-75
2022/07/04 03:13:24;;;;;;;19.95;18.65;;;11.90;99.90;;;;;;5075757;28;20480;-74
2022/07/04 03:15:52;;;;;;;20.20;18.80;;;11.90;99.90;;;;;;5065181;28;20163;-73
2022/07/04 03:18:19;;;;;;;20.05;18.55;;;11.90;99.90;;;;;;5068227;28;20056;-75
2022/07/04 03:20:46;;;;;;;20.50;19.10;;;11.90;99.90;;;;;;5056577;28;20553;-75
2022/07/04 03:23:13;;;;;;;20.90;19.30;;;11.80;99.90;;;;;;5069866;28;20055;-74
2022/07/04 03:25:41;;;;;;;20.05;18.48;;;11.80;99.90;;;;;;5068781;28;20071;-74
2022/07/04 03:28:08;;;;;;;19.20;17.90;;;11.80;99.90;;;;;;5058420;28;20048;-74
2022/07/04 03:30:35;;;;;;;18.13;16.83;;;11.80;99.90;;;;;;5048930;28;20105;-76
2022/07/04 03:33:02;;;;;;;18.52;17.23;;;11.80;99.90;;;;;;5059112;28;20109;-75
2022/07/04 03:35:29;;;;;;;19.67;18.27;;;11.90;99.90;;;;;;5060470;28;20485;-73
2022/07/04 03:37:56;;;;;;;19.40;17.77;;;12.10;99.90;;;;;;5069562;28;20040;-73
2022/07/04 03:40:23;;;;;;;19.77;18.17;;;12.10;99.90;;;;;;5054543;28;20041;-75
2022/07/04 03:42:50;;;;;;;19.77;18.48;;;11.90;99.90;;;;;;5062188;28;20044;-73
2022/07/04 03:45:17;;;;;;;19.40;18.10;;;11.80;99.90;;;;;;5070755;28;20044;-72
2022/07/04 03:47:44;;;;;;;18.88;17.52;;;11.80;99.90;;;;;;5071270;28;20242;-73
2022/07/04 03:50:11;;;;;;;18.90;17.65;;;11.70;99.90;;;;;;5072820;28;20125;-75
2022/07/04 03:52:37;;;;;;;20.13;18.83;;;11.70;99.90;;;;;;5058635;28;20425;-73
2022/07/04 03:55:05;;;;;;;21.42;19.92;;;11.70;99.90;;;;;;5059445;28;20073;-73
2022/07/04 03:57:31;;;;;;;20.40;18.90;;;11.70;99.90;;;;;;5066823;28;20688;-73
2022/07/04 03:59:58;;;;;;;19.92;18.27;;;11.70;99.90;;;;;;5065539;28;20052;-73
2022/07/04 04:02:25;;;;;;;19.98;18.50;;;11.70;99.90;;;;;;5065306;28;20079;-74
2022/07/04 04:07:51;;;;;;;18.83;17.17;;;11.80;99.90;;;;;;5047937;28;21919;-74
2022/07/04 04:10:19;;;;;;;19.77;18.10;;;11.90;99.90;;;;;;5068450;28;20128;-75
2022/07/04 04:12:46;;;;;;;19.00;17.55;;;11.90;99.90;;;;;;5071935;28;20044;-75
2022/07/04 04:15:12;;;;;;;19.40;18.08;;;12.00;99.90;;;;;;5074489;28;20052;-74
2022/07/04 04:17:39;;;;;;;19.80;18.60;;;12.00;99.90;;;;;;5068924;28;20044;-77
2022/07/04 04:20:08;;;;;;;19.48;18.17;;;12.10;99.90;;;;;;5058082;28;20434;-76
2022/07/04 04:22:35;;;;;;;20.30;18.90;;;12.10;99.90;;;;;;5066764;28;20050;-76
2022/07/04 04:25:03;;;;;;;20.38;18.77;;;12.30;99.90;;;;;;5051200;28;20048;-75
2022/07/04 04:27:32;;;;;;;19.17;17.83;;;12.40;99.90;;;;;;5069419;28;20063;-77
2022/07/04 04:29:59;;;;;;;20.23;18.67;;;12.40;99.90;;;;;;5055878;28;20298;-77
2022/07/04 04:32:25;;;;;;;19.17;17.58;;;12.60;99.90;;;;;;5064123;28;20064;-76
2022/07/04 04:34:52;;;;;;;18.00;16.80;;;12.70;99.90;;;;;;5067064;28;20047;-76
2022/07/04 04:37:19;;;;;;;19.13;17.58;;;12.70;99.90;;;;;;5061522;28;20443;-75
2022/07/04 04:39:46;;;;;;;17.98;16.88;;;12.70;99.90;;;;;;5066950;28;20103;-76
2022/07/04 04:42:13;;;;;;;19.27;17.77;;;12.80;99.90;;;;;;5065479;28;20048;-76
2022/07/04 04:44:39;;;;;;;19.42;18.13;;;13.00;99.90;;;;;;5067508;28;20093;-76
2022/07/04 04:47:07;;;;;;;19.50;17.98;;;13.10;99.90;;;;;;5072423;28;20094;-75
2022/07/04 04:49:34;;;;;;;20.27;18.98;;;13.20;99.90;;;;;;5070969;28;20101;-74
2022/07/04 04:52:00;;;;;;;21.23;19.73;;;13.30;99.90;;;;;;5058696;28;20040;-75
2022/07/04 04:54:27;;;;;;;22.33;20.55;;;13.40;99.90;;;;;;5064787;28;20100;-76
2022/07/04 04:56:54;;;;;;;22.23;20.83;;;13.50;99.90;;;;;;5056250;28;20547;-75
2022/07/04 04:59:21;;;;;;;22.23;20.77;;;13.90;99.90;;;;;;5064902;28;20421;-75
2022/07/04 05:01:47;;;;;;;24.42;22.52;;;14.10;99.90;;;;;;5067745;28;20048;-77
2022/07/04 05:04:15;;;;;;;23.77;22.17;;;14.20;99.90;;;;;;5054278;28;20074;-75
2022/07/04 05:06:43;;;;;;;23.13;21.10;;;14.70;99.90;;;;;;5055015;28;20037;-76
2022/07/04 05:09:10;;;;;;;24.23;22.50;;;14.90;99.90;;;;;;5070783;28;20131;-76
2022/07/04 05:11:37;;;;;;;24.63;22.85;;;15.20;99.90;;;;;;5047538;28;20618;-75
2022/07/04 05:14:04;;;;;;;24.15;22.23;;;15.40;99.90;;;;;;5056390;28;20076;-75
2022/07/04 05:16:33;;;;;;;24.23;22.73;;;15.60;99.90;;;;;;5063975;28;20040;-75
2022/07/04 05:19:00;;;;;;;24.92;23.10;;;15.60;99.90;;;;;;5064644;28;20048;-77
2022/07/04 05:21:28;;;;;;;26.48;24.30;;;15.50;99.90;;;;;;5058243;28;20036;-78
2022/07/04 05:23:55;;;;;;;24.80;22.75;;;15.30;99.90;;;;;;5052150;28;20036;-76
2022/07/04 05:26:22;;;;;;;24.30;22.48;;;15.30;99.90;;;;;;5067181;28;20452;-75
2022/07/04 05:28:49;;;;;;;24.90;23.02;;;15.30;99.90;;;;;;5059511;28;20087;-75
2022/07/04 05:31:16;;;;;;;23.73;22.23;;;15.20;99.90;;;;;;5050017;28;20052;-75
2022/07/04 05:33:43;;;;;;;25.67;23.75;;;15.30;99.90;;;;;;5056978;28;20139;-75
2022/07/04 05:36:10;;;;;;;24.25;22.40;;;15.30;99.90;;;;;;5063127;28;20053;-75
2022/07/04 05:38:37;;;;;;;23.75;22.10;;;15.50;99.90;;;;;;5069624;28;20330;-75
2022/07/04 05:41:03;;;;;;;24.83;23.17;;;15.40;99.90;;;;;;5064974;28;20545;-75
2022/07/04 05:43:30;;;;;;;24.50;22.85;;;15.30;99.90;;;;;;5060651;28;20649;-73
2022/07/04 05:45:57;;;;;;;23.95;22.45;;;15.20;99.90;;;;;;5071255;28;20044;-75
2022/07/04 05:48:24;;;;;;;24.73;22.92;;;15.50;99.90;;;;;;5068317;28;20140;-75
2022/07/04 05:50:51;;;;;;;25.08;23.35;;;15.80;99.90;;;;;;5069148;28;20126;-76
2022/07/04 05:53:17;;;;;;;25.15;23.38;;;16.00;99.90;;;;;;5064453;28;20044;-77
2022/07/04 05:55:44;;;;;;;25.83;23.88;;;16.40;99.90;;;;;;5071993;28;20120;-78
2022/07/04 05:58:11;;;;;;;25.15;23.45;;;16.60;99.90;;;;;;5066690;28;20109;-76
2022/07/04 06:00:41;;;;;;;26.55;24.77;;;16.70;99.90;;;;;;5072313;28;20093;-75
2022/07/04 06:03:08;;;;;;;26.75;24.52;;;17.10;99.90;;;;;;5064232;28;20302;-76
2022/07/04 06:05:35;;;;;;;26.48;24.60;;;17.30;99.90;;;;;;5071421;28;20040;-76
2022/07/04 06:08:02;;;;;;;25.90;24.13;;;17.30;99.90;;;;;;5055176;28;20582;-74
2022/07/04 06:10:31;;;;;;;27.13;25.25;;;17.40;99.90;;;;;;5056820;28;20093;-73
2022/07/04 06:12:57;;;;;;;27.58;25.48;;;17.80;99.90;;;;;;5063079;28;20133;-75
2022/07/04 06:15:24;;;;;;;26.63;24.83;;;17.60;99.90;;;;;;5049947;28;20051;-75
2022/07/04 06:17:51;;;;;;;26.75;24.85;;;17.80;99.90;;;;;;5065926;28;21145;-76
2022/07/04 06:20:18;;;;;;;26.60;24.77;;;18.00;99.90;;;;;;5063114;28;20049;-76
2022/07/04 06:22:47;;;;;;;26.33;24.58;;;18.00;99.90;;;;;;5054522;28;20166;-74
2022/07/04 06:25:16;;;;;;;29.52;27.42;;;18.00;99.90;;;;;;5062469;28;20078;-76
2022/07/04 06:27:44;;;;;;;27.80;25.88;;;17.80;99.90;;;;;;5067768;28;20102;-74
2022/07/04 06:30:12;;;;;;;30.10;27.98;;;17.60;99.90;;;;;;5054046;28;20101;-75
2022/07/04 06:33:05;;;;;;;27.80;25.77;;;17.50;99.90;;;;;;5063841;28;20045;-74
2022/07/04 06:38:25;;;;;;;;;;;18.40;99.90;;;;;;5057798;28;20494;-79
2022/07/04 06:40:59;;;;;;;28.92;26.80;;;18.60;99.90;;;;;;5065464;28;20052;-73
2022/07/04 06:43:26;;;;;;;30.17;28.13;;;18.50;99.90;;;;;;5048193;28;20067;-76
2022/07/04 06:45:53;;;;;;;29.08;27.17;;;18.40;99.90;;;;;;5065564;28;20060;-75
2022/07/04 06:48:21;;;;;;;28.70;26.80;;;18.50;99.90;;;;;;5062452;28;20057;-75
2022/07/04 06:50:48;;;;;;;28.05;26.00;;;18.70;99.90;;;;;;5070521;28;20151;-75
2022/07/04 06:53:15;;;;;;;28.88;26.85;;;18.90;99.90;;;;;;5068418;28;20304;-74
2022/07/04 06:55:43;;;;;;;30.17;27.95;;;19.20;99.90;;;;;;5062599;28;20051;-76
2022/07/04 06:58:10;;;;;;;29.15;26.88;;;18.80;99.90;;;;;;5067865;28;20098;-76
2022/07/04 07:00:37;;;;;;;29.45;27.55;;;18.30;99.90;;;;;;5071668;28;20101;-76
2022/07/04 07:03:04;;;;;;;29.40;27.25;;;18.20;99.90;;;;;;5069996;28;20058;-75
2022/07/04 07:05:31;;;;;;;28.50;26.25;;;17.90;99.90;;;;;;5061647;28;20044;-76
2022/07/04 07:08:18;;;;;;;31.08;28.55;;;17.80;99.90;;;;;;5062756;28;20047;-76
2022/07/04 07:10:45;;;;;;;28.90;26.90;;;17.80;99.90;;;;;;5056354;28;20105;-76
2022/07/04 07:13:11;;;;;;;29.27;27.15;;;18.20;99.90;;;;;;5061031;28;20076;-74
2022/07/04 07:15:38;;;;;;;29.23;27.23;;;18.40;99.90;;;;;;5066952;28;20562;-76
2022/07/04 07:18:05;;;;;;;28.40;26.65;;;18.40;99.90;;;;;;5052006;28;20060;-76
2022/07/04 07:20:33;;;;;;;28.27;26.42;;;18.50;99.90;;;;;;5087037;28;20049;-76
2022/07/04 07:23:04;;;;;;;29.45;27.48;;;18.80;99.90;;;;;;5065351;28;20498;-77
2022/07/04 07:25:31;;;;;;;28.40;26.50;;;19.30;99.90;;;;;;5061570;28;20096;-76
2022/07/04 07:27:58;;;;;;;27.88;25.83;;;19.40;99.90;;;;;;5070440;28;20047;-75
2022/07/04 07:30:28;;;;;;;27.23;24.85;;;19.90;99.90;;;;;;5072036;28;20657;-75
2022/07/04 07:32:55;;;;;;;27.88;25.98;;;20.00;99.90;;;;;;5068099;28;20055;-79
2022/07/04 07:35:22;;;;;;;26.92;25.13;;;20.00;99.90;;;;;;5063037;28;20143;-77
2022/07/04 07:37:49;;;;;;;26.95;24.90;;;20.10;99.90;;;;;;5067206;28;20064;-76
2022/07/04 07:40:16;;;;;;;27.92;26.08;;;19.90;99.90;;;;;;5068307;28;20106;-77
2022/07/04 07:42:42;;;;;;;28.48;26.38;;;19.70;99.90;;;;;;5060726;28;20094;-76
2022/07/04 07:45:09;;;;;;;27.48;25.58;;;19.50;99.90;;;;;;5053282;28;20101;-77
2022/07/04 07:47:36;;;;;;;27.25;25.33;;;19.80;99.90;;;;;;5055539;28;20082;-76
2022/07/04 07:50:04;;;;;;;28.20;26.10;;;20.00;99.90;;;;;;5065985;28;20048;-75
2022/07/04 07:52:31;;;;;;;28.63;26.65;;;19.70;99.90;;;;;;5063040;28;20105;-76
2022/07/04 07:54:58;;;;;;;28.77;26.90;;;19.40;99.90;;;;;;5061284;28;20036;-76
2022/07/04 07:57:27;;;;;;;30.50;28.40;;;19.10;99.90;;;;;;5068811;28;20047;-77
2022/07/04 07:59:54;;;;;;;27.63;25.65;;;19.10;99.90;;;;;;5057220;28;20052;-77
2022/07/04 08:04:33;;;;;;;27.00;25.20;;;19.20;99.90;;;;;;5063752;28;20040;-78
2022/07/04 08:05:08;;;;;;;27.40;25.50;;;19.60;99.90;;;;;;5058471;28;20549;-76
2022/07/04 08:07:35;;;;;;;25.38;23.70;;;20.00;99.90;;;;;;5055747;28;20040;-75
2022/07/04 08:10:03;;;;;;;26.45;24.65;;;20.10;99.90;;;;;;5048895;28;20086;-77
2022/07/04 08:12:30;;;;;;;26.48;24.77;;;19.90;99.90;;;;;;5056975;28;20044;-78
2022/07/04 08:14:57;;;;;;;26.90;24.80;;;20.00;99.90;;;;;;5067604;28;20105;-77
2022/07/04 08:17:31;;;;;;;26.50;24.88;;;19.80;99.90;;;;;;5066747;28;20110;-81
2022/07/04 08:19:58;;;;;;;24.88;23.48;;;20.20;99.90;;;;;;5048572;28;20387;-77
2022/07/04 08:22:25;;;;;;;25.65;24.00;;;20.60;99.90;;;;;;5054565;28;20090;-76
2022/07/04 08:24:52;;;;;;;25.42;23.67;;;21.00;99.90;;;;;;5063332;28;20056;-75
2022/07/04 08:27:22;;;;;;;24.98;23.58;;;21.30;99.90;;;;;;5049587;28;20557;-76
2022/07/04 08:29:57;;;;;;;25.02;23.38;;;21.50;99.90;;;;;;5072838;28;20677;-76
2022/07/04 08:32:24;;;;;;;24.70;23.00;;;21.50;99.90;;;;;;5063721;28;20461;-75
2022/07/04 08:34:51;;;;;;;24.85;23.30;;;21.30;99.90;;;;;;5063779;28;20369;-76
2022/07/04 08:37:18;;;;;;;25.92;24.17;;;21.10;99.90;;;;;;5064885;28;20102;-75
2022/07/04 08:39:45;;;;;;;24.50;22.75;;;20.70;99.90;;;;;;5069948;28;20536;-75
2022/07/04 08:42:17;;;;;;;25.20;23.67;;;21.00;99.90;;;;;;5056228;28;20055;-75
2022/07/04 08:44:55;;;;;;;24.77;23.40;;;21.10;99.90;;;;;;5054189;28;20181;-75
2022/07/04 08:47:24;;;;;;;24.38;22.85;;;21.40;99.90;;;;;;5067484;28;20070;-75
2022/07/04 08:50:19;;;;;;;24.75;23.15;;;21.50;99.90;;;;;;5066628;28;20071;-76
2022/07/04 08:53:03;;;;;;;23.88;22.35;;;21.60;99.90;;;;;;5066258;28;20390;-77
2022/07/04 08:58:30;;;;;;;24.95;23.23;;;22.30;99.90;;;;;;5064149;28;20581;-75
2022/07/04 09:00:59;;;;;;;23.45;22.15;;;22.20;99.90;;;;;;5058192;28;20042;-76
2022/07/04 09:03:27;;;;;;;22.80;21.42;;;21.70;99.90;;;;;;5059367;28;20509;-77
2022/07/04 09:05:56;;;;;;;24.08;22.70;;;21.60;99.90;;;;;;5063884;28;20486;-77
2022/07/04 09:08:23;;;;;;;23.15;21.65;;;21.80;99.90;;;;;;5045429;28;20117;-76
2022/07/04 09:10:51;;;;;;;24.67;23.17;;;22.10;99.90;;;;;;5051889;28;20040;-78
2022/07/04 09:13:19;;;;;;;24.80;23.30;;;22.10;99.90;;;;;;5067801;28;20113;-76
2022/07/04 09:15:48;;;;;;;24.98;23.13;;;22.40;99.90;;;;;;5056752;28;20121;-76
2022/07/04 09:18:28;;;;;;;23.67;22.17;;;22.60;99.90;;;;;;5054913;28;20056;-74
2022/07/04 09:20:58;;;;;;;24.83;23.33;;;22.30;99.90;;;;;;5062767;28;20047;-76
2022/07/04 09:23:31;;;;;;;24.20;22.70;;;22.30;99.90;;;;;;5068093;28;20071;-76
2022/07/04 09:26:17;;;;;;;24.80;23.10;;;22.00;99.90;;;;;;5062555;28;20444;-76
2022/07/04 09:28:57;;;;;;;25.30;23.65;;;22.60;99.90;;;;;;5064117;28;20040;-76
2022/07/04 09:31:26;;;;;;;23.77;22.38;;;23.20;99.90;;;;;;5063204;28;20052;-76
2022/07/04 09:33:54;;;;;;;24.27;22.92;;;23.30;99.90;;;;;;5062158;28;20721;-77
2022/07/04 09:36:23;;;;;;;25.45;23.70;;;23.10;99.90;;;;;;5062983;28;20543;-76
2022/07/04 09:39:18;;;;;;;25.33;23.83;;;23.10;99.90;;;;;;5054875;28;20044;-79
2022/07/04 09:41:57;;;;;;;26.17;24.58;;;22.90;99.90;;;;;;5052411;28;20101;-78
2022/07/04 09:44:25;;;;;;;23.70;22.08;;;22.80;99.90;;;;;;5047307;28;20094;-75
2022/07/04 09:46:53;;;;;;;23.15;21.65;;;22.50;99.90;;;;;;5059946;28;20041;-78
2022/07/04 09:49:20;;;;;;;25.27;23.50;;;22.10;99.90;;;;;;5063838;28;20075;-78
2022/07/04 09:51:52;;;;;;;25.17;23.42;;;22.30;99.90;;;;;;5064809;28;20041;-75
2022/07/04 09:54:32;;;;;;;26.13;24.40;;;22.20;99.90;;;;;;5064561;28;20118;-76
2022/07/04 09:57:02;;;;;;;24.52;23.13;;;22.10;99.90;;;;;;5064868;28;20068;-77
2022/07/04 09:59:29;;;;;;;25.25;23.55;;;22.10;99.90;;;;;;5053123;28;20052;-76
2022/07/04 10:02:07;;;;;;;24.40;22.98;;;22.40;99.90;;;;;;5046256;28;20052;-74
2022/07/04 10:04:45;;;;;;;25.00;23.48;;;23.00;99.90;;;;;;5065007;28;20055;-76
2022/07/04 10:07:12;;;;;;;25.33;23.83;;;23.50;99.90;;;;;;5053567;28;20098;-81
2022/07/04 10:09:38;;;;;;;26.23;24.45;;;23.80;99.90;;;;;;5060040;28;20040;-76
2022/07/04 10:12:08;;;;;;;25.88;23.98;;;23.80;99.90;;;;;;5049891;28;20048;-78
2022/07/04 10:14:35;;;;;;;24.50;23.00;;;24.00;99.90;;;;;;5062213;28;20055;-75
2022/07/04 10:17:02;;;;;;;26.70;25.08;;;24.30;99.90;;;;;;5062501;28;20048;-75
2022/07/04 10:19:29;;;;;;;25.67;23.88;;;24.00;99.90;;;;;;5064755;28;20416;-76
2022/07/04 10:21:56;;;;;;;27.30;25.17;;;24.00;99.90;;;;;;5063430;28;20040;-74
2022/07/04 10:24:22;;;;;;;24.73;23.20;;;24.30;99.90;;;;;;5064538;28;20053;-74
2022/07/04 10:26:50;;;;;;;26.02;24.00;;;24.40;99.90;;;;;;5066491;28;20040;-76
2022/07/04 10:29:17;;;;;;;26.25;24.25;;;24.30;99.90;;;;;;5051500;28;20076;-73
2022/07/04 10:31:44;;;;;;;26.13;24.52;;;24.20;99.90;;;;;;5053868;28;20086;-76
2022/07/04 10:34:11;;;;;;;26.67;24.90;;;24.10;99.90;;;;;;5068849;28;20045;-73
2022/07/04 10:36:37;;;;;;;24.80;23.30;;;24.00;99.90;;;;;;5051931;28;20049;-76
2022/07/04 10:39:04;;;;;;;24.35;22.80;;;24.10;99.90;;;;;;5072174;28;20044;-76
2022/07/04 10:41:32;;;;;;;26.17;24.27;;;23.80;99.90;;;;;;5057853;28;20055;-75
2022/07/04 10:44:16;;;;;;;25.50;23.90;;;23.50;99.90;;;;;;5075029;28;20098;-78
2022/07/04 10:46:48;;;;;;;25.77;24.08;;;23.40;99.90;;;;;;5048224;28;20036;-76
2022/07/04 10:49:15;;;;;;;25.48;23.92;;;23.60;99.90;;;;;;5073566;28;20066;-77
2022/07/04 10:51:48;;;;;;;26.23;24.60;;;23.60;99.90;;;;;;5068467;28;20049;-77
2022/07/04 10:54:18;;;;;;;25.98;24.30;;;23.90;99.90;;;;;;5069654;28;20063;-76
2022/07/04 10:56:50;;;;;;;26.13;24.42;;;24.00;99.90;;;;;;5072047;28;20044;-77
2022/07/04 10:59:27;;;;;;;23.90;22.50;;;24.40;99.90;;;;;;5052772;28;20051;-77
2022/07/04 11:02:16;;;;;;;26.08;24.48;;;24.40;99.90;;;;;;5060600;28;20048;-76
2022/07/04 11:04:58;;;;;;;25.10;23.60;;;23.90;99.90;;;;;;5073331;28;20056;-75
2022/07/04 11:07:36;;;;;;;25.30;23.75;;;23.70;99.90;;;;;;5066264;28;20041;-76
2022/07/04 11:12:57;;;;;;;25.63;24.13;;;24.40;99.90;;;;;;5076874;28;20051;-72
2022/07/04 11:15:27;;;;;;;24.80;23.30;;;24.30;99.90;;;;;;5066530;28;20079;-73
2022/07/04 11:17:56;;;;;;;26.40;24.80;;;24.20;99.90;;;;;;5067234;28;20045;-76
2022/07/04 11:20:24;;;;;;;25.67;24.00;;;24.60;99.90;;;;;;5070061;28;20049;-76
2022/07/04 11:22:51;;;;;;;26.70;25.08;;;24.80;99.90;;;;;;5075441;28;20449;-76
2022/07/04 11:25:18;;;;;;;26.17;24.65;;;24.80;99.90;;;;;;5060314;28;20130;-76
2022/07/04 11:27:45;;;;;;;26.67;24.98;;;24.70;99.90;;;;;;5078572;28;20052;-76
2022/07/04 11:30:11;;;;;;;25.98;24.17;;;24.30;99.90;;;;;;5061444;28;20048;-75
2022/07/04 11:32:42;;;;;;;24.75;23.35;;;24.20;99.90;;;;;;5052700;28;20036;-76
2022/07/04 11:35:09;;;;;;;26.33;24.73;;;23.70;99.90;;;;;;5067233;28;20511;-74
2022/07/04 11:37:36;;;;;;;26.30;24.70;;;23.70;99.90;;;;;;5058496;28;20053;-76
2022/07/04 11:45:51;;;;;;;26.83;25.27;;;24.30;99.90;;;;;;5072524;28;20045;-76
2022/07/04 11:48:22;;;;;;;27.55;25.73;;;24.60;99.90;;;;;;5054624;28;20122;-76
2022/07/04 11:50:49;;;;;;;27.65;25.60;;;25.10;99.90;;;;;;5070099;28;20060;-75
2022/07/04 11:53:20;;;;;;;26.17;24.40;;;25.20;99.90;;;;;;5071299;28;20452;-73
2022/07/04 11:55:55;;;;;;;26.20;24.60;;;25.10;99.90;;;;;;5057017;28;20659;-75
2022/07/04 11:58:23;;;;;;;26.60;25.00;;;24.90;99.90;;;;;;5057460;28;20121;-76
2022/07/04 12:00:50;;;;;;;27.10;25.27;;;25.10;99.90;;;;;;5072377;28;20481;-74
2022/07/04 12:03:17;;;;;;;27.08;25.40;;;25.00;99.90;;;;;;5059072;28;20048;-73
2022/07/04 12:05:46;;;;;;;26.65;25.10;;;25.10;99.90;;;;;;5055414;28;20119;-76
2022/07/04 12:08:12;;;;;;;26.08;24.35;;;25.30;99.90;;;;;;5065892;28;20929;-74
2022/07/04 12:10:54;;;;;;;26.60;24.85;;;25.30;99.90;;;;;;5069217;28;20524;-74
2022/07/04 12:13:21;;;;;;;25.58;23.63;;;25.40;99.90;;;;;;5069227;28;20063;-76
2022/07/04 12:15:49;;;;;;;26.27;24.00;;;25.30;99.90;;;;;;5046604;28;20045;-76
2022/07/04 12:18:25;;;;;;;24.58;23.17;;;25.10;99.90;;;;;;5055950;28;20617;-76
2022/07/04 12:20:53;;;;;;;27.33;25.75;;;24.40;99.90;;;;;;5060265;28;20265;-76
2022/07/04 12:23:21;;;;;;;29.30;26.85;;;24.20;99.90;;;;;;5064035;28;20583;-76
2022/07/04 12:25:51;;;;;;;25.00;23.30;;;24.40;99.90;;;;;;5071447;28;20389;-76
2022/07/04 12:28:18;;;;;;;25.35;23.75;;;24.80;99.90;;;;;;5067602;28;20048;-76
2022/07/04 12:30:51;;;;;;;27.60;25.90;;;24.70;99.90;;;;;;5074931;28;20111;-76
2022/07/04 12:33:23;;;;;;;26.63;25.02;;;23.80;99.90;;;;;;5061452;28;20036;-76
2022/07/04 12:36:00;;;;;;;27.92;25.98;;;23.90;99.90;;;;;;5058907;28;20436;-76
2022/07/04 12:38:27;;;;;;;27.52;25.27;;;24.30;99.90;;;;;;5066754;28;20048;-76
2022/07/04 12:41:04;;;;;;;25.58;24.05;;;24.70;99.90;;;;;;5059714;28;20056;-76
2022/07/04 12:43:42;;;;;;;24.55;23.02;;;25.00;99.90;;;;;;5066643;28;20059;-76
2022/07/04 12:46:31;;;;;;;27.15;25.58;;;24.60;99.90;;;;;;5051838;28;20084;-75
2022/07/04 12:49:17;;;;;;;27.83;26.02;;;24.50;99.90;;;;;;5060628;28;20048;-75
2022/07/04 12:51:44;;;;;;;27.35;25.55;;;24.40;99.90;;;;;;5049270;28;20044;-75
2022/07/04 12:54:11;;;;;;;26.63;24.88;;;24.50;99.90;;;;;;5065769;28;20109;-76
2022/07/04 12:56:41;;;;;;;25.60;24.10;;;24.70;99.90;;;;;;5074478;28;20585;-76
2022/07/04 12:59:14;;;;;;;27.13;25.02;;;24.80;99.90;;;;;;5063900;28;20036;-76